createdAt,value
2023-03-01T00:00:52.439Z,15.37
2023-03-01T00:04:14.078Z,14.93
2023-03-01T00:07:35.724Z,13.67
2023-03-01T00:11:07.845Z,14.30
2023-03-01T00:14:29.645Z,14.00
2023-03-01T00:17:51.243Z,14.07
2023-03-01T00:21:13.224Z,14.50
2023-03-01T00:24:34.855Z,13.77
2023-03-01T00:27:56.466Z,13.97
2023-03-01T00:31:21.663Z,13.77
2023-03-01T00:34:55.892Z,13.70
2023-03-01T00:38:20.207Z,13.20
2023-03-01T00:41:45.437Z,12.40
2023-03-01T00:45:08.850Z,12.30
2023-03-01T00:48:30.629Z,12.97
2023-03-01T00:51:54.441Z,12.50
2023-03-01T00:55:23.916Z,12.33
2023-03-01T00:58:48.036Z,12.10
2023-03-01T01:02:10.012Z,12.13
2023-03-01T01:05:31.821Z,11.47
2023-03-01T01:08:55.434Z,12.17
2023-03-01T01:12:19.228Z,11.27
2023-03-01T01:15:43.299Z,11.93
2023-03-01T01:19:05.082Z,11.70
2023-03-01T01:22:29.246Z,11.50
2023-03-01T01:25:55.668Z,11.87
2023-03-01T01:29:17.355Z,12.77
2023-03-01T01:32:41.411Z,12.27
2023-03-01T01:36:03.833Z,13.00
2023-03-01T01:39:25.478Z,12.57
2023-03-01T01:42:47.121Z,13.30
2023-03-01T01:46:31.562Z,14.30
2023-03-01T01:49:58.099Z,14.43
2023-03-01T01:53:20.869Z,12.70
2023-03-01T01:56:46.916Z,12.93
2023-03-01T02:00:12.731Z,15.77
2023-03-01T02:03:40.682Z,13.73
2023-03-01T02:07:16.484Z,14.07
2023-03-01T02:10:43.238Z,13.00
2023-03-01T02:14:05.153Z,12.73
2023-03-01T02:17:28.974Z,12.40
2023-03-01T02:20:59.603Z,12.43
2023-03-01T02:24:34.374Z,11.67
2023-03-01T02:28:09.277Z,13.67
2023-03-01T02:31:45.985Z,18.60
2023-03-01T02:35:07.969Z,11.80
2023-03-01T02:38:30.726Z,26.90
2023-03-01T02:41:57.531Z,20.83
2023-03-01T02:45:24.187Z,12.97
2023-03-01T02:48:54.135Z,13.03
2023-03-01T02:52:34.172Z,11.70
2023-03-01T02:55:55.809Z,11.07
2023-03-01T02:59:30.427Z,11.73
2023-03-01T03:02:54.115Z,11.37
2023-03-01T03:06:19.182Z,11.60
2023-03-01T03:09:40.987Z,11.63
2023-03-01T03:13:08.097Z,11.07
2023-03-01T03:16:30.981Z,11.33
2023-03-01T03:19:54.969Z,11.57
2023-03-01T03:23:19.243Z,11.23
2023-03-01T03:26:43.052Z,12.10
2023-03-01T03:30:09.962Z,12.17
2023-03-01T03:33:32.160Z,16.87
2023-03-01T03:37:00.385Z,12.07
2023-03-01T03:40:22.579Z,11.68
2023-03-01T03:43:46.722Z,11.23
2023-03-01T03:47:08.400Z,11.97
2023-03-01T03:50:30.027Z,12.17
2023-03-01T03:53:51.693Z,11.37
2023-03-01T03:57:15.468Z,11.67
2023-03-01T04:00:42.897Z,11.37
2023-03-01T04:04:05.383Z,11.47
2023-03-01T04:07:27.019Z,10.60
2023-03-01T04:10:57.293Z,10.57
2023-03-01T04:14:18.959Z,10.83
2023-03-01T04:17:45.740Z,10.90
2023-03-01T04:21:07.322Z,10.63
2023-03-01T04:24:28.877Z,11.03
2023-03-01T04:27:50.466Z,11.43
2023-03-01T04:31:14.975Z,11.00
2023-03-01T04:34:36.708Z,10.60
2023-03-01T04:38:03.741Z,10.50
2023-03-01T04:41:28.491Z,10.50
2023-03-01T04:44:52.279Z,10.47
2023-03-01T04:48:13.911Z,10.87
2023-03-01T04:51:35.480Z,9.40
2023-03-01T04:54:57.089Z,10.33
2023-03-01T04:58:21.222Z,9.00
2023-03-01T05:01:45.845Z,10.40
2023-03-01T05:05:07.873Z,9.33
2023-03-01T05:08:29.530Z,9.43
2023-03-01T05:11:52.670Z,9.30
2023-03-01T05:15:15.219Z,8.93
2023-03-01T05:18:39.875Z,10.07
2023-03-01T05:22:05.010Z,9.53
2023-03-01T05:25:34.123Z,9.07
2023-03-01T05:29:00.000Z,9.80
2023-03-01T05:32:24.428Z,9.27
2023-03-01T05:35:49.676Z,9.87
2023-03-01T05:39:11.357Z,9.90
2023-03-01T05:42:35.787Z,10.03
2023-03-01T05:45:58.916Z,10.33
2023-03-01T05:49:26.971Z,9.43
2023-03-01T05:52:59.851Z,13.02
2023-03-01T05:56:23.325Z,40.30
2023-03-01T05:59:49.916Z,11.27
2023-03-01T06:03:13.368Z,10.30
2023-03-01T06:06:38.380Z,9.87
2023-03-01T06:10:00.048Z,9.97
2023-03-01T06:13:21.716Z,10.43
2023-03-01T06:16:45.390Z,10.73
2023-03-01T06:20:08.877Z,10.37
2023-03-01T06:23:30.462Z,10.10
2023-03-01T06:26:54.501Z,10.50
2023-03-01T06:30:21.704Z,11.40
2023-03-01T06:33:45.770Z,11.53
2023-03-01T06:37:07.997Z,10.30
2023-03-01T06:40:30.752Z,11.27
2023-03-01T06:43:53.089Z,11.57
2023-03-01T06:47:16.879Z,10.30
2023-03-01T06:50:41.212Z,10.37
2023-03-01T06:54:03.231Z,10.50
2023-03-01T06:57:27.832Z,10.03
2023-03-01T07:00:51.856Z,10.60
2023-03-01T07:04:16.690Z,16.47
2023-03-01T07:07:40.999Z,10.30
2023-03-01T07:11:04.452Z,9.67
2023-03-01T07:14:28.591Z,8.83
2023-03-01T07:17:51.820Z,9.37
2023-03-01T07:21:15.254Z,9.27
2023-03-01T07:24:36.998Z,9.30
2023-03-01T07:27:59.161Z,9.60
2023-03-01T07:31:26.136Z,9.00
2023-03-01T07:34:50.188Z,10.00
2023-03-01T07:38:11.763Z,9.03
2023-03-01T07:41:33.423Z,9.03
2023-03-01T07:44:55.594Z,10.30
2023-03-01T07:48:17.619Z,9.20
2023-03-01T07:51:44.488Z,9.63
2023-03-01T07:55:06.586Z,9.93
2023-03-01T07:58:30.558Z,9.70
2023-03-01T08:01:52.203Z,8.87
2023-03-01T08:05:14.151Z,11.33
2023-03-01T08:08:35.797Z,10.13
2023-03-01T08:12:00.911Z,8.83
2023-03-01T08:15:24.705Z,9.00
2023-03-01T08:18:46.376Z,9.23
2023-03-01T08:22:08.002Z,9.03
2023-03-01T08:25:29.622Z,9.23
2023-03-01T08:28:55.781Z,8.73
2023-03-01T08:32:17.587Z,8.00
2023-03-01T08:35:41.505Z,9.40
2023-03-01T08:39:03.201Z,14.57
2023-03-01T08:42:24.993Z,9.97
2023-03-01T08:45:52.394Z,9.40
2023-03-01T08:49:16.823Z,9.05
2023-03-01T08:52:40.680Z,9.10
2023-03-01T08:56:04.712Z,8.63
2023-03-01T08:59:30.539Z,7.53
2023-03-01T09:02:54.369Z,7.35
2023-03-01T09:06:17.116Z,7.63
2023-03-01T09:09:41.438Z,7.38
2023-03-01T09:13:06.132Z,7.40
2023-03-01T09:16:27.850Z,7.55
2023-03-01T09:19:50.388Z,6.82
2023-03-01T09:23:12.018Z,7.13
2023-03-01T09:26:33.960Z,6.97
2023-03-01T09:29:58.081Z,7.30
2023-03-01T09:33:22.626Z,7.07
2023-03-01T09:36:44.216Z,6.57
2023-03-01T09:40:16.562Z,6.72
2023-03-01T09:43:49.234Z,6.80
2023-03-01T09:47:20.450Z,6.00
2023-03-01T09:50:45.367Z,5.97
2023-03-01T09:54:11.514Z,5.65
2023-03-01T09:57:56.911Z,5.00
2023-03-01T10:01:53.400Z,5.40
2023-03-01T10:05:56.819Z,5.18
2023-03-01T10:09:19.379Z,5.85
2023-03-01T10:12:42.509Z,5.03
2023-03-01T10:16:15.859Z,5.47
2023-03-01T10:19:39.515Z,5.10
2023-03-01T10:23:03.571Z,5.15
2023-03-01T10:26:36.929Z,5.05
2023-03-01T10:30:17.187Z,4.60
2023-03-01T10:33:40.686Z,5.05
2023-03-01T10:37:11.896Z,4.72
2023-03-01T10:40:35.929Z,5.47
2023-03-01T10:44:00.590Z,5.55
2023-03-01T10:47:31.045Z,5.57
2023-03-01T10:50:59.705Z,5.63
2023-03-01T10:57:43.255Z,5.95
2023-03-01T11:01:36.278Z,5.43
2023-03-01T11:05:02.264Z,5.90
2023-03-01T11:08:41.896Z,5.32
2023-03-01T11:12:03.968Z,5.88
2023-03-01T11:15:29.010Z,5.35
2023-03-01T11:19:21.540Z,5.32
2023-03-01T11:22:59.393Z,5.45
2023-03-01T11:26:22.400Z,5.60
2023-03-01T11:29:52.157Z,5.50
2023-03-01T11:33:47.599Z,7.00
2023-03-01T11:37:24.168Z,5.60
2023-03-01T11:41:00.139Z,6.13
2023-03-01T11:44:31.162Z,6.28
2023-03-01T11:48:11.560Z,6.28
2023-03-01T11:52:03.829Z,6.13
2023-03-01T11:55:31.611Z,5.63
2023-03-01T11:59:14.283Z,5.68
2023-03-01T12:02:54.393Z,5.00
2023-03-01T12:06:36.641Z,4.90
2023-03-01T12:10:23.910Z,4.97
2023-03-01T12:13:57.013Z,5.15
2023-03-01T12:17:40.691Z,4.85
2023-03-01T12:21:20.703Z,4.78
2023-03-01T12:25:03.840Z,4.60
2023-03-01T12:28:37.615Z,4.60
2023-03-01T12:32:20.121Z,3.80
2023-03-01T12:36:14.137Z,3.85
2023-03-01T12:39:44.835Z,4.18
2023-03-01T12:43:29.524Z,4.40
2023-03-01T12:47:24.254Z,3.85
2023-03-01T12:50:50.397Z,3.85
2023-03-01T12:54:29.198Z,3.85
2023-03-01T13:01:33.480Z,4.07
2023-03-01T13:05:10.944Z,3.65
2023-03-01T13:09:03.483Z,3.63
2023-03-01T13:12:58.835Z,3.75
2023-03-01T13:16:46.170Z,3.60
2023-03-01T13:20:14.398Z,4.07
2023-03-01T13:23:39.612Z,3.97
2023-03-01T13:27:07.426Z,3.45
2023-03-01T13:30:35.176Z,3.92
2023-03-01T13:34:00.374Z,3.30
2023-03-01T13:37:30.423Z,3.55
2023-03-01T13:40:55.083Z,4.68
2023-03-01T13:44:22.713Z,3.55
2023-03-01T13:47:49.235Z,3.80
2023-03-01T13:51:14.643Z,3.42
2023-03-01T13:54:39.633Z,3.35
2023-03-01T13:58:07.556Z,3.20
2023-03-01T14:01:36.999Z,3.17
2023-03-01T14:05:06.531Z,2.90
2023-03-01T14:08:30.541Z,3.03
2023-03-01T14:12:15.497Z,3.25
2023-03-01T14:16:21.206Z,3.75
2023-03-01T14:19:46.345Z,13.30
2023-03-01T14:23:18.393Z,3.95
2023-03-01T14:26:41.782Z,3.53
2023-03-01T14:30:14.200Z,3.80
2023-03-01T14:33:38.189Z,3.28
2023-03-01T14:37:11.794Z,3.33
2023-03-01T14:40:36.808Z,3.50
2023-03-01T14:44:03.065Z,3.33
2023-03-01T14:47:36.586Z,3.40
2023-03-01T14:50:58.537Z,16.00
2023-03-01T14:54:29.199Z,8.02
2023-03-01T14:57:52.407Z,4.38
2023-03-01T15:01:16.854Z,5.85
2023-03-01T15:04:38.851Z,4.10
2023-03-01T15:08:03.513Z,3.60
2023-03-01T15:11:34.777Z,3.88
2023-03-01T15:15:03.742Z,4.15
2023-03-01T15:18:33.653Z,4.75
2023-03-01T15:21:56.303Z,3.53
2023-03-01T15:25:23.881Z,3.85
2023-03-01T15:28:52.830Z,4.80
2023-03-01T15:32:40.208Z,3.58
2023-03-01T15:36:24.297Z,3.60
2023-03-01T15:39:58.445Z,3.40
2023-03-01T15:43:46.915Z,3.65
2023-03-01T15:47:27.809Z,3.40
2023-03-01T15:50:59.179Z,3.40
2023-03-01T15:54:23.061Z,3.25
2023-03-01T15:57:44.818Z,3.80
2023-03-01T16:01:13.987Z,3.70
2023-03-01T16:04:35.672Z,3.80
2023-03-01T16:07:57.395Z,3.60
2023-03-01T16:11:23.021Z,5.20
2023-03-01T16:14:44.654Z,6.97
2023-03-01T16:18:11.305Z,10.80
2023-03-01T16:21:36.103Z,5.53
2023-03-01T16:24:59.993Z,4.60
2023-03-01T16:28:23.850Z,6.43
2023-03-01T16:31:45.876Z,4.72
2023-03-01T16:35:11.976Z,4.25
2023-03-01T16:38:36.078Z,4.30
2023-03-01T16:42:00.825Z,3.78
2023-03-01T16:45:24.983Z,4.78
2023-03-01T16:48:48.197Z,4.20
2023-03-01T16:52:12.364Z,5.50
2023-03-01T16:55:34.473Z,5.85
2023-03-01T16:58:56.137Z,11.18
2023-03-01T17:02:20.862Z,7.63
2023-03-01T17:05:42.455Z,7.38
2023-03-01T17:09:06.324Z,7.18
2023-03-01T17:12:29.414Z,6.22
2023-03-01T17:15:53.316Z,5.68
2023-03-01T17:19:18.748Z,6.88
2023-03-01T17:22:42.648Z,7.25
2023-03-01T17:26:04.653Z,8.50
2023-03-01T17:29:28.889Z,26.52
2023-03-01T17:32:56.102Z,7.93
2023-03-01T17:36:18.495Z,7.63
2023-03-01T17:39:42.401Z,8.25
2023-03-01T17:43:06.451Z,8.02
2023-03-01T17:46:28.080Z,6.28
2023-03-01T17:49:49.662Z,7.07
2023-03-01T17:53:11.901Z,7.32
2023-03-01T17:56:33.976Z,8.30
2023-03-01T17:59:55.729Z,7.95
2023-03-01T18:03:17.856Z,8.40
2023-03-01T18:06:40.966Z,8.48
2023-03-01T18:10:03.740Z,7.78
2023-03-01T18:13:25.961Z,9.32
2023-03-01T18:16:47.668Z,8.90
2023-03-01T18:20:10.119Z,8.73
2023-03-01T18:23:35.191Z,9.20
2023-03-01T18:26:56.843Z,10.02
2023-03-01T18:30:19.134Z,9.48
2023-03-01T18:33:43.222Z,9.32
2023-03-01T18:37:11.895Z,9.00
2023-03-01T18:43:56.748Z,7.60
2023-03-01T18:47:18.354Z,9.93
2023-03-01T18:50:40.620Z,9.00
2023-03-01T18:54:02.257Z,9.32
2023-03-01T18:57:23.881Z,13.80
2023-03-01T19:00:45.507Z,13.90
2023-03-01T19:04:09.121Z,14.95
2023-03-01T19:07:31.908Z,24.98
2023-03-01T19:11:01.965Z,17.27
2023-03-01T19:14:24.156Z,16.30
2023-03-01T19:17:51.491Z,16.60
2023-03-01T19:21:14.208Z,15.63
2023-03-01T19:24:35.885Z,14.20
2023-03-01T19:27:59.913Z,14.25
2023-03-01T19:31:28.922Z,14.20
2023-03-01T19:34:50.868Z,13.07
2023-03-01T19:38:12.437Z,12.23
2023-03-01T19:41:34.610Z,12.37
2023-03-01T19:44:59.623Z,10.88
2023-03-01T19:48:24.161Z,14.93
2023-03-01T19:51:45.831Z,14.83
2023-03-01T19:55:10.363Z,14.48
2023-03-01T19:58:32.636Z,14.10
2023-03-01T20:01:54.776Z,14.20
2023-03-01T20:05:16.466Z,13.85
2023-03-01T20:08:40.777Z,14.20
2023-03-01T20:12:07.081Z,14.37
2023-03-01T20:15:29.904Z,13.50
2023-03-01T20:18:51.512Z,13.53
2023-03-01T20:22:15.033Z,13.67
2023-03-01T20:25:39.578Z,14.43
2023-03-01T20:29:01.204Z,14.03
2023-03-01T20:32:25.236Z,30.03
2023-03-01T20:35:51.890Z,17.57
2023-03-01T20:39:20.660Z,14.87
2023-03-01T20:46:08.272Z,14.80
2023-03-01T20:49:32.279Z,14.67
2023-03-01T20:52:56.083Z,13.67
2023-03-01T20:56:20.069Z,14.30
2023-03-01T20:59:44.052Z,13.80
2023-03-01T21:03:07.112Z,14.47
2023-03-01T21:06:31.873Z,14.80
2023-03-01T21:09:53.925Z,16.87
2023-03-01T21:13:15.522Z,16.77
2023-03-01T21:16:37.971Z,16.03
2023-03-01T21:20:02.296Z,13.93
2023-03-01T21:23:23.970Z,13.60
2023-03-01T21:26:45.754Z,14.47
2023-03-01T21:30:07.958Z,14.93
2023-03-01T21:33:31.826Z,14.73
2023-03-01T21:36:53.880Z,15.40
2023-03-01T21:40:15.919Z,14.93
2023-03-01T21:43:38.950Z,16.57
2023-03-01T21:47:02.705Z,16.03
2023-03-01T21:50:24.318Z,16.97
2023-03-01T21:53:50.556Z,15.37
2023-03-01T21:57:12.461Z,15.23
2023-03-01T22:00:39.611Z,38.70
2023-03-01T22:04:03.274Z,29.17
2023-03-01T22:07:24.904Z,20.70
2023-03-01T22:10:46.521Z,19.73
2023-03-01T22:14:08.978Z,21.10
2023-03-01T22:17:31.181Z,19.20
2023-03-01T22:20:54.648Z,19.47
2023-03-01T22:24:18.910Z,19.10
2023-03-01T22:27:40.609Z,22.67
2023-03-01T22:31:05.554Z,22.13
2023-03-01T22:34:27.588Z,20.40
2023-03-01T22:37:51.800Z,20.87
2023-03-01T22:41:16.118Z,19.93
2023-03-01T22:44:37.722Z,18.13
2023-03-01T22:48:02.324Z,19.40
2023-03-01T22:51:30.025Z,19.90
2023-03-01T22:54:54.910Z,19.73
2023-03-01T22:58:18.618Z,18.63
2023-03-01T23:01:42.615Z,18.07
2023-03-01T23:05:07.454Z,18.87
2023-03-01T23:08:29.032Z,17.50
2023-03-01T23:11:51.466Z,17.93
2023-03-01T23:15:13.679Z,18.20
2023-03-01T23:18:35.907Z,19.00
2023-03-01T23:22:02.516Z,20.17
2023-03-01T23:25:24.114Z,20.20
2023-03-01T23:28:50.840Z,18.30
2023-03-01T23:32:14.853Z,16.80
2023-03-01T23:35:39.063Z,17.17
2023-03-01T23:39:04.504Z,16.60
2023-03-01T23:42:26.099Z,15.73
2023-03-01T23:45:47.702Z,16.90
2023-03-01T23:49:13.872Z,15.77
2023-03-01T23:52:41.592Z,17.03
2023-03-01T23:56:03.437Z,16.50
2023-03-01T23:59:25.420Z,17.33
